sensor_id;sensor_type;location;lat;lon;timestamp;P1;durP1;ratioP1;P2;durP2;ratioP2
51194;SDS011;37259;49.972;19.850;2024-03-02T00:00:18;39;;;23.1;;
51194;SDS011;37259;49.972;19.850;2024-03-02T00:01:18;39;;;23.1;;
51194;SDS011;37259;49.972;19.850;2024-03-02T00:02:18;39;;;23.1;;
51194;SDS011;37259;49.972;19.850;2024-03-02T00:03:18;39;;;23.1;;
51194;SDS011;37259;49.972;19.850;2024-03-02T00:04:18;39;;;23.1;;
51194;SDS011;37259;49.972;19.850;2024-03-02T00:05:19;34;;;20;;
51194;SDS011;37259;49.972;19.850;2024-03-02T00:06:19;34;;;20;;
51194;SDS011;37259;49.972;19.850;2024-03-02T00:07:18;34;;;20;;
51194;SDS011;37259;49.972;19.850;2024-03-02T00:08:21;34;;;20;;
51194;SDS011;37259;49.972;19.850;2024-03-02T00:09:18;34;;;20;;
51194;SDS011;37259;49.972;19.850;2024-03-02T00:10:19;34;;;20;;
51194;SDS011;37259;49.972;19.850;2024-03-02T00:11:18;34;;;20;;
51194;SDS011;37259;49.972;19.850;2024-03-02T00:12:18;34;;;20;;
51194;SDS011;37259;49.972;19.850;2024-03-02T00:13:20;34;;;20;;
51194;SDS011;37259;49.972;19.850;2024-03-02T00:14:18;34;;;20;;
51194;SDS011;37259;49.972;19.850;2024-03-02T00:15:25;34;;;20;;
51194;SDS011;37259;49.972;19.850;2024-03-02T00:16:18;34;;;20;;
51194;SDS011;37259;49.972;19.850;2024-03-02T00:17:24;34;;;20;;
51194;SDS011;37259;49.972;19.850;2024-03-02T00:18:18;34;;;20;;
51194;SDS011;37259;49.972;19.850;2024-03-02T00:19:18;34;;;20;;
51194;SDS011;37259;49.972;19.850;2024-03-02T00:20:18;34;;;20;;
51194;SDS011;37259;49.972;19.850;2024-03-02T00:21:18;34;;;20;;
51194;SDS011;37259;49.972;19.850;2024-03-02T00:22:18;34;;;20;;
51194;SDS011;37259;49.972;19.850;2024-03-02T00:23:18;34;;;20;;
51194;SDS011;37259;49.972;19.850;2024-03-02T00:24:18;34;;;20;;
51194;SDS011;37259;49.972;19.850;2024-03-02T00:25:18;34;;;20;;
51194;SDS011;37259;49.972;19.850;2024-03-02T00:26:18;34;;;20;;
51194;SDS011;37259;49.972;19.850;2024-03-02T00:27:18;34;;;20;;
51194;SDS011;37259;49.972;19.850;2024-03-02T00:28:19;34;;;20;;
51194;SDS011;37259;49.972;19.850;2024-03-02T00:29:18;34;;;20;;
51194;SDS011;37259;49.972;19.850;2024-03-02T00:30:27;34;;;20;;
51194;SDS011;37259;49.972;19.850;2024-03-02T00:31:19;34;;;20;;
51194;SDS011;37259;49.972;19.850;2024-03-02T00:32:18;34;;;20;;
51194;SDS011;37259;49.972;19.850;2024-03-02T00:33:18;34;;;20;;
51194;SDS011;37259;49.972;19.850;2024-03-02T00:34:18;34;;;20;;
51194;SDS011;37259;49.972;19.850;2024-03-02T00:35:18;34;;;19.5;;
51194;SDS011;37259;49.972;19.850;2024-03-02T00:36:21;34;;;19.5;;
51194;SDS011;37259;49.972;19.850;2024-03-02T00:37:18;34;;;19.5;;
51194;SDS011;37259;49.972;19.850;2024-03-02T00:38:18;34;;;19.5;;
51194;SDS011;37259;49.972;19.850;2024-03-02T00:39:18;34;;;19.5;;
51194;SDS011;37259;49.972;19.850;2024-03-02T00:40:18;34;;;19.5;;
51194;SDS011;37259;49.972;19.850;2024-03-02T00:41:19;34;;;19.5;;
51194;SDS011;37259;49.972;19.850;2024-03-02T00:42:18;34;;;19.5;;
51194;SDS011;37259;49.972;19.850;2024-03-02T00:43:53;34;;;19.5;;
51194;SDS011;37259;49.972;19.850;2024-03-02T00:44:18;34;;;19.5;;
51194;SDS011;37259;49.972;19.850;2024-03-02T00:45:18;34;;;19.5;;
51194;SDS011;37259;49.972;19.850;2024-03-02T00:46:18;34;;;19.5;;
51194;SDS011;37259;49.972;19.850;2024-03-02T00:47:18;34;;;19.5;;
51194;SDS011;37259;49.972;19.850;2024-03-02T00:48:18;34;;;19.5;;
51194;SDS011;37259;49.972;19.850;2024-03-02T00:49:18;34;;;19.5;;
51194;SDS011;37259;49.972;19.850;2024-03-02T00:50:18;34;;;19.5;;
51194;SDS011;37259;49.972;19.850;2024-03-02T00:51:18;34;;;19.5;;
51194;SDS011;37259;49.972;19.850;2024-03-02T00:52:18;34;;;19.5;;
51194;SDS011;37259;49.972;19.850;2024-03-02T00:53:18;34;;;19.5;;
51194;SDS011;37259;49.972;19.850;2024-03-02T00:54:19;34;;;19.5;;
51194;SDS011;37259;49.972;19.850;2024-03-02T00:55:18;34;;;19.5;;
51194;SDS011;37259;49.972;19.850;2024-03-02T00:56:18;34;;;19.5;;
51194;SDS011;37259;49.972;19.850;2024-03-02T00:57:18;34;;;19.5;;
51194;SDS011;37259;49.972;19.850;2024-03-02T00:58:18;34;;;19.5;;
51194;SDS011;37259;49.972;19.850;2024-03-02T00:59:18;34;;;19.5;;
51194;SDS011;37259;49.972;19.850;2024-03-02T01:00:18;34;;;19.5;;
51194;SDS011;37259;49.972;19.850;2024-03-02T01:01:18;34;;;19.5;;
51194;SDS011;37259;49.972;19.850;2024-03-02T01:02:18;34;;;19.5;;
51194;SDS011;37259;49.972;19.850;2024-03-02T01:03:18;34;;;19.5;;
51194;SDS011;37259;49.972;19.850;2024-03-02T01:04:18;34;;;19.5;;
51194;SDS011;37259;49.972;19.850;2024-03-02T01:05:18;34.5;;;19.4;;
51194;SDS011;37259;49.972;19.850;2024-03-02T01:06:18;34.5;;;19.4;;
51194;SDS011;37259;49.972;19.850;2024-03-02T01:07:18;34.5;;;19.4;;
51194;SDS011;37259;49.972;19.850;2024-03-02T01:08:18;34.5;;;19.4;;
51194;SDS011;37259;49.972;19.850;2024-03-02T01:09:18;34.5;;;19.4;;
51194;SDS011;37259;49.972;19.850;2024-03-02T01:10:18;34.5;;;19.4;;
51194;SDS011;37259;49.972;19.850;2024-03-02T01:11:18;34.5;;;19.4;;
51194;SDS011;37259;49.972;19.850;2024-03-02T01:12:18;34.5;;;19.4;;
51194;SDS011;37259;49.972;19.850;2024-03-02T01:13:18;34.5;;;19.4;;
51194;SDS011;37259;49.972;19.850;2024-03-02T01:14:18;34.5;;;19.4;;
51194;SDS011;37259;49.972;19.850;2024-03-02T01:15:18;34.5;;;19.4;;
51194;SDS011;37259;49.972;19.850;2024-03-02T01:16:18;34.5;;;19.4;;
51194;SDS011;37259;49.972;19.850;2024-03-02T01:17:18;34.5;;;19.4;;
51194;SDS011;37259;49.972;19.850;2024-03-02T01:18:18;34.5;;;19.4;;
51194;SDS011;37259;49.972;19.850;2024-03-02T01:19:18;34.5;;;19.4;;
51194;SDS011;37259;49.972;19.850;2024-03-02T01:20:18;34.5;;;19.4;;
51194;SDS011;37259;49.972;19.850;2024-03-02T01:21:18;34.5;;;19.4;;
51194;SDS011;37259;49.972;19.850;2024-03-02T01:22:18;34.5;;;19.4;;
51194;SDS011;37259;49.972;19.850;2024-03-02T01:23:18;34.5;;;19.4;;
51194;SDS011;37259;49.972;19.850;2024-03-02T01:24:18;34.5;;;19.4;;
51194;SDS011;37259;49.972;19.850;2024-03-02T01:25:18;34.5;;;19.4;;
51194;SDS011;37259;49.972;19.850;2024-03-02T01:26:18;34.5;;;19.4;;
51194;SDS011;37259;49.972;19.850;2024-03-02T01:27:18;34.5;;;19.4;;
51194;SDS011;37259;49.972;19.850;2024-03-02T01:28:18;34.5;;;19.4;;
51194;SDS011;37259;49.972;19.850;2024-03-02T01:29:18;34.5;;;19.4;;
51194;SDS011;37259;49.972;19.850;2024-03-02T01:30:18;34.5;;;19.4;;
51194;SDS011;37259;49.972;19.850;2024-03-02T01:31:18;34.5;;;19.4;;
51194;SDS011;37259;49.972;19.850;2024-03-02T01:32:18;34.5;;;19.4;;
51194;SDS011;37259;49.972;19.850;2024-03-02T01:33:19;34.5;;;19.4;;
51194;SDS011;37259;49.972;19.850;2024-03-02T01:34:18;34.5;;;19.4;;
51194;SDS011;37259;49.972;19.850;2024-03-02T01:35:18;38.2;;;21.7;;
51194;SDS011;37259;49.972;19.850;2024-03-02T01:36:18;38.2;;;21.7;;
51194;SDS011;37259;49.972;19.850;2024-03-02T01:37:18;38.2;;;21.7;;
51194;SDS011;37259;49.972;19.850;2024-03-02T01:38:18;38.2;;;21.7;;
51194;SDS011;37259;49.972;19.850;2024-03-02T01:39:18;38.2;;;21.7;;
51194;SDS011;37259;49.972;19.850;2024-03-02T01:40:18;38.2;;;21.7;;
51194;SDS011;37259;49.972;19.850;2024-03-02T01:41:18;38.2;;;21.7;;
51194;SDS011;37259;49.972;19.850;2024-03-02T01:42:18;38.2;;;21.7;;
51194;SDS011;37259;49.972;19.850;2024-03-02T01:43:18;38.2;;;21.7;;
51194;SDS011;37259;49.972;19.850;2024-03-02T01:44:18;38.2;;;21.7;;
51194;SDS011;37259;49.972;19.850;2024-03-02T01:45:18;38.2;;;21.7;;
51194;SDS011;37259;49.972;19.850;2024-03-02T01:46:18;38.2;;;21.7;;
51194;SDS011;37259;49.972;19.850;2024-03-02T01:47:18;38.2;;;21.7;;
51194;SDS011;37259;49.972;19.850;2024-03-02T01:48:18;38.2;;;21.7;;
51194;SDS011;37259;49.972;19.850;2024-03-02T01:49:18;38.2;;;21.7;;
51194;SDS011;37259;49.972;19.850;2024-03-02T01:50:24;38.2;;;21.7;;
51194;SDS011;37259;49.972;19.850;2024-03-02T01:51:18;38.2;;;21.7;;
51194;SDS011;37259;49.972;19.850;2024-03-02T01:52:18;38.2;;;21.7;;
51194;SDS011;37259;49.972;19.850;2024-03-02T01:53:18;38.2;;;21.7;;
51194;SDS011;37259;49.972;19.850;2024-03-02T01:54:18;38.2;;;21.7;;
51194;SDS011;37259;49.972;19.850;2024-03-02T01:55:18;38.2;;;21.7;;
51194;SDS011;37259;49.972;19.850;2024-03-02T01:56:18;38.2;;;21.7;;
51194;SDS011;37259;49.972;19.850;2024-03-02T01:57:18;38.2;;;21.7;;
51194;SDS011;37259;49.972;19.850;2024-03-02T01:58:18;38.2;;;21.7;;
51194;SDS011;37259;49.972;19.850;2024-03-02T01:59:18;38.2;;;21.7;;
51194;SDS011;37259;49.972;19.850;2024-03-02T02:00:18;38.2;;;21.7;;
51194;SDS011;37259;49.972;19.850;2024-03-02T02:01:18;38.2;;;21.7;;
51194;SDS011;37259;49.972;19.850;2024-03-02T02:02:18;38.2;;;21.7;;
51194;SDS011;37259;49.972;19.850;2024-03-02T02:03:18;38.2;;;21.7;;
51194;SDS011;37259;49.972;19.850;2024-03-02T02:04:18;38.2;;;21.7;;
51194;SDS011;37259;49.972;19.850;2024-03-02T02:05:18;31.9;;;19;;
51194;SDS011;37259;49.972;19.850;2024-03-02T02:06:18;31.9;;;19;;
51194;SDS011;37259;49.972;19.850;2024-03-02T02:07:18;31.9;;;19;;
51194;SDS011;37259;49.972;19.850;2024-03-02T02:08:18;31.9;;;19;;
51194;SDS011;37259;49.972;19.850;2024-03-02T02:09:18;31.9;;;19;;
51194;SDS011;37259;49.972;19.850;2024-03-02T02:10:18;31.9;;;19;;
51194;SDS011;37259;49.972;19.850;2024-03-02T02:11:18;31.9;;;19;;
51194;SDS011;37259;49.972;19.850;2024-03-02T02:12:18;31.9;;;19;;
51194;SDS011;37259;49.972;19.850;2024-03-02T02:13:18;31.9;;;19;;
51194;SDS011;37259;49.972;19.850;2024-03-02T02:14:18;31.9;;;19;;
51194;SDS011;37259;49.972;19.850;2024-03-02T02:15:22;31.9;;;19;;
51194;SDS011;37259;49.972;19.850;2024-03-02T02:16:18;31.9;;;19;;
51194;SDS011;37259;49.972;19.850;2024-03-02T02:17:18;31.9;;;19;;
51194;SDS011;37259;49.972;19.850;2024-03-02T02:18:18;31.9;;;19;;
51194;SDS011;37259;49.972;19.850;2024-03-02T02:19:18;31.9;;;19;;
51194;SDS011;37259;49.972;19.850;2024-03-02T02:20:18;31.9;;;19;;
51194;SDS011;37259;49.972;19.850;2024-03-02T02:21:21;31.9;;;19;;
51194;SDS011;37259;49.972;19.850;2024-03-02T02:22:18;31.9;;;19;;
51194;SDS011;37259;49.972;19.850;2024-03-02T02:23:18;31.9;;;19;;
51194;SDS011;37259;49.972;19.850;2024-03-02T02:24:18;31.9;;;19;;
51194;SDS011;37259;49.972;19.850;2024-03-02T02:25:18;31.9;;;19;;
51194;SDS011;37259;49.972;19.850;2024-03-02T02:26:18;31.9;;;19;;
51194;SDS011;37259;49.972;19.850;2024-03-02T02:27:18;31.9;;;19;;
51194;SDS011;37259;49.972;19.850;2024-03-02T02:28:18;31.9;;;19;;
51194;SDS011;37259;49.972;19.850;2024-03-02T02:29:18;31.9;;;19;;
51194;SDS011;37259;49.972;19.850;2024-03-02T02:30:18;31.9;;;19;;
51194;SDS011;37259;49.972;19.850;2024-03-02T02:31:18;31.9;;;19;;
51194;SDS011;37259;49.972;19.850;2024-03-02T02:32:18;31.9;;;19;;
51194;SDS011;37259;49.972;19.850;2024-03-02T02:33:18;31.9;;;19;;
51194;SDS011;37259;49.972;19.850;2024-03-02T02:34:18;31.9;;;19;;
51194;SDS011;37259;49.972;19.850;2024-03-02T02:35:18;33.9;;;19.8;;
51194;SDS011;37259;49.972;19.850;2024-03-02T02:36:18;33.9;;;19.8;;
51194;SDS011;37259;49.972;19.850;2024-03-02T02:37:18;33.9;;;19.8;;
51194;SDS011;37259;49.972;19.850;2024-03-02T02:38:18;33.9;;;19.8;;
51194;SDS011;37259;49.972;19.850;2024-03-02T02:39:18;33.9;;;19.8;;
51194;SDS011;37259;49.972;19.850;2024-03-02T02:40:20;33.9;;;19.8;;
51194;SDS011;37259;49.972;19.850;2024-03-02T02:41:18;33.9;;;19.8;;
51194;SDS011;37259;49.972;19.850;2024-03-02T02:42:18;33.9;;;19.8;;
51194;SDS011;37259;49.972;19.850;2024-03-02T02:43:18;33.9;;;19.8;;
51194;SDS011;37259;49.972;19.850;2024-03-02T02:44:18;33.9;;;19.8;;
51194;SDS011;37259;49.972;19.850;2024-03-02T02:45:18;33.9;;;19.8;;
51194;SDS011;37259;49.972;19.850;2024-03-02T02:46:18;33.9;;;19.8;;
51194;SDS011;37259;49.972;19.850;2024-03-02T02:47:18;33.9;;;19.8;;
51194;SDS011;37259;49.972;19.850;2024-03-02T02:48:18;33.9;;;19.8;;
51194;SDS011;37259;49.972;19.850;2024-03-02T02:49:18;33.9;;;19.8;;
51194;SDS011;37259;49.972;19.850;2024-03-02T02:50:18;33.9;;;19.8;;
51194;SDS011;37259;49.972;19.850;2024-03-02T02:51:19;33.9;;;19.8;;
51194;SDS011;37259;49.972;19.850;2024-03-02T02:52:18;33.9;;;19.8;;
51194;SDS011;37259;49.972;19.850;2024-03-02T02:53:18;33.9;;;19.8;;
51194;SDS011;37259;49.972;19.850;2024-03-02T02:54:18;33.9;;;19.8;;
51194;SDS011;37259;49.972;19.850;2024-03-02T02:55:18;33.9;;;19.8;;
51194;SDS011;37259;49.972;19.850;2024-03-02T02:56:18;33.9;;;19.8;;
51194;SDS011;37259;49.972;19.850;2024-03-02T02:57:18;33.9;;;19.8;;
51194;SDS011;37259;49.972;19.850;2024-03-02T02:58:18;33.9;;;19.8;;
51194;SDS011;37259;49.972;19.850;2024-03-02T02:59:18;33.9;;;19.8;;
51194;SDS011;37259;49.972;19.850;2024-03-02T03:00:18;33.9;;;19.8;;
51194;SDS011;37259;49.972;19.850;2024-03-02T03:01:18;33.9;;;19.8;;
51194;SDS011;37259;49.972;19.850;2024-03-02T03:02:18;33.9;;;19.8;;
51194;SDS011;37259;49.972;19.850;2024-03-02T03:03:18;33.9;;;19.8;;
51194;SDS011;37259;49.972;19.850;2024-03-02T03:04:18;33.9;;;19.8;;
51194;SDS011;37259;49.972;19.850;2024-03-02T03:05:18;30.7;;;18.3;;
51194;SDS011;37259;49.972;19.850;2024-03-02T03:06:18;30.7;;;18.3;;
51194;SDS011;37259;49.972;19.850;2024-03-02T03:07:18;30.7;;;18.3;;
51194;SDS011;37259;49.972;19.850;2024-03-02T03:08:18;30.7;;;18.3;;
51194;SDS011;37259;49.972;19.850;2024-03-02T03:09:18;30.7;;;18.3;;
51194;SDS011;37259;49.972;19.850;2024-03-02T03:10:18;30.7;;;18.3;;
51194;SDS011;37259;49.972;19.850;2024-03-02T03:11:18;30.7;;;18.3;;
51194;SDS011;37259;49.972;19.850;2024-03-02T03:12:18;30.7;;;18.3;;
51194;SDS011;37259;49.972;19.850;2024-03-02T03:13:18;30.7;;;18.3;;
51194;SDS011;37259;49.972;19.850;2024-03-02T03:14:18;30.7;;;18.3;;
51194;SDS011;37259;49.972;19.850;2024-03-02T03:15:18;30.7;;;18.3;;
51194;SDS011;37259;49.972;19.850;2024-03-02T03:16:18;30.7;;;18.3;;
51194;SDS011;37259;49.972;19.850;2024-03-02T03:17:18;30.7;;;18.3;;
51194;SDS011;37259;49.972;19.850;2024-03-02T03:18:18;30.7;;;18.3;;
51194;SDS011;37259;49.972;19.850;2024-03-02T03:19:18;30.7;;;18.3;;
51194;SDS011;37259;49.972;19.850;2024-03-02T03:20:18;30.7;;;18.3;;
51194;SDS011;37259;49.972;19.850;2024-03-02T03:21:18;30.7;;;18.3;;
51194;SDS011;37259;49.972;19.850;2024-03-02T03:22:18;30.7;;;18.3;;
51194;SDS011;37259;49.972;19.850;2024-03-02T03:23:18;30.7;;;18.3;;
51194;SDS011;37259;49.972;19.850;2024-03-02T03:24:18;30.7;;;18.3;;
51194;SDS011;37259;49.972;19.850;2024-03-02T03:25:18;30.7;;;18.3;;
51194;SDS011;37259;49.972;19.850;2024-03-02T03:26:18;30.7;;;18.3;;
51194;SDS011;37259;49.972;19.850;2024-03-02T03:27:18;30.7;;;18.3;;
51194;SDS011;37259;49.972;19.850;2024-03-02T03:28:18;30.7;;;18.3;;
51194;SDS011;37259;49.972;19.850;2024-03-02T03:29:18;30.7;;;18.3;;
51194;SDS011;37259;49.972;19.850;2024-03-02T03:30:18;30.7;;;18.3;;
51194;SDS011;37259;49.972;19.850;2024-03-02T03:31:18;30.7;;;18.3;;
51194;SDS011;37259;49.972;19.850;2024-03-02T03:32:18;30.7;;;18.3;;
51194;SDS011;37259;49.972;19.850;2024-03-02T03:33:18;30.7;;;18.3;;
51194;SDS011;37259;49.972;19.850;2024-03-02T03:34:18;30.7;;;18.3;;
51194;SDS011;37259;49.972;19.850;2024-03-02T03:35:18;34.3;;;20.6;;
51194;SDS011;37259;49.972;19.850;2024-03-02T03:36:18;34.3;;;20.6;;
51194;SDS011;37259;49.972;19.850;2024-03-02T03:37:18;34.3;;;20.6;;
51194;SDS011;37259;49.972;19.850;2024-03-02T03:38:18;34.3;;;20.6;;
51194;SDS011;37259;49.972;19.850;2024-03-02T03:39:18;34.3;;;20.6;;
51194;SDS011;37259;49.972;19.850;2024-03-02T03:40:18;34.3;;;20.6;;
51194;SDS011;37259;49.972;19.850;2024-03-02T03:41:18;34.3;;;20.6;;
51194;SDS011;37259;49.972;19.850;2024-03-02T03:42:18;34.3;;;20.6;;
51194;SDS011;37259;49.972;19.850;2024-03-02T03:43:18;34.3;;;20.6;;
51194;SDS011;37259;49.972;19.850;2024-03-02T03:44:18;34.3;;;20.6;;
51194;SDS011;37259;49.972;19.850;2024-03-02T03:45:18;34.3;;;20.6;;
51194;SDS011;37259;49.972;19.850;2024-03-02T03:46:18;34.3;;;20.6;;
51194;SDS011;37259;49.972;19.850;2024-03-02T03:47:18;34.3;;;20.6;;
51194;SDS011;37259;49.972;19.850;2024-03-02T03:48:18;34.3;;;20.6;;
51194;SDS011;37259;49.972;19.850;2024-03-02T03:49:18;34.3;;;20.6;;
51194;SDS011;37259;49.972;19.850;2024-03-02T03:50:18;34.3;;;20.6;;
51194;SDS011;37259;49.972;19.850;2024-03-02T03:51:18;34.3;;;20.6;;
51194;SDS011;37259;49.972;19.850;2024-03-02T03:52:18;34.3;;;20.6;;
51194;SDS011;37259;49.972;19.850;2024-03-02T03:53:18;34.3;;;20.6;;
51194;SDS011;37259;49.972;19.850;2024-03-02T03:54:18;34.3;;;20.6;;
51194;SDS011;37259;49.972;19.850;2024-03-02T03:55:18;34.3;;;20.6;;
51194;SDS011;37259;49.972;19.850;2024-03-02T03:56:18;34.3;;;20.6;;
51194;SDS011;37259;49.972;19.850;2024-03-02T03:57:18;34.3;;;20.6;;
51194;SDS011;37259;49.972;19.850;2024-03-02T03:58:18;34.3;;;20.6;;
51194;SDS011;37259;49.972;19.850;2024-03-02T03:59:18;34.3;;;20.6;;
51194;SDS011;37259;49.972;19.850;2024-03-02T04:00:18;34.3;;;20.6;;
51194;SDS011;37259;49.972;19.850;2024-03-02T04:01:18;34.3;;;20.6;;
51194;SDS011;37259;49.972;19.850;2024-03-02T04:02:18;34.3;;;20.6;;
51194;SDS011;37259;49.972;19.850;2024-03-02T04:03:18;34.3;;;20.6;;
51194;SDS011;37259;49.972;19.850;2024-03-02T04:04:18;34.3;;;20.6;;
51194;SDS011;37259;49.972;19.850;2024-03-02T04:05:18;32.9;;;18.4;;
51194;SDS011;37259;49.972;19.850;2024-03-02T04:06:18;32.9;;;18.4;;
51194;SDS011;37259;49.972;19.850;2024-03-02T04:07:18;32.9;;;18.4;;
51194;SDS011;37259;49.972;19.850;2024-03-02T04:08:18;32.9;;;18.4;;
51194;SDS011;37259;49.972;19.850;2024-03-02T04:09:18;32.9;;;18.4;;
51194;SDS011;37259;49.972;19.850;2024-03-02T04:10:18;32.9;;;18.4;;
51194;SDS011;37259;49.972;19.850;2024-03-02T04:11:18;32.9;;;18.4;;
51194;SDS011;37259;49.972;19.850;2024-03-02T04:12:18;32.9;;;18.4;;
51194;SDS011;37259;49.972;19.850;2024-03-02T04:13:18;32.9;;;18.4;;
51194;SDS011;37259;49.972;19.850;2024-03-02T04:14:18;32.9;;;18.4;;
51194;SDS011;37259;49.972;19.850;2024-03-02T04:15:18;32.9;;;18.4;;
51194;SDS011;37259;49.972;19.850;2024-03-02T04:16:18;32.9;;;18.4;;
51194;SDS011;37259;49.972;19.850;2024-03-02T04:17:18;32.9;;;18.4;;
51194;SDS011;37259;49.972;19.850;2024-03-02T04:18:19;32.9;;;18.4;;
51194;SDS011;37259;49.972;19.850;2024-03-02T04:19:18;32.9;;;18.4;;
51194;SDS011;37259;49.972;19.850;2024-03-02T04:20:18;32.9;;;18.4;;
51194;SDS011;37259;49.972;19.850;2024-03-02T04:21:18;32.9;;;18.4;;
51194;SDS011;37259;49.972;19.850;2024-03-02T04:22:18;32.9;;;18.4;;
51194;SDS011;37259;49.972;19.850;2024-03-02T04:23:18;32.9;;;18.4;;
51194;SDS011;37259;49.972;19.850;2024-03-02T04:24:18;32.9;;;18.4;;
51194;SDS011;37259;49.972;19.850;2024-03-02T04:25:18;32.9;;;18.4;;
51194;SDS011;37259;49.972;19.850;2024-03-02T04:26:18;32.9;;;18.4;;
51194;SDS011;37259;49.972;19.850;2024-03-02T04:27:18;32.9;;;18.4;;
51194;SDS011;37259;49.972;19.850;2024-03-02T04:28:18;32.9;;;18.4;;
51194;SDS011;37259;49.972;19.850;2024-03-02T04:29:18;32.9;;;18.4;;
51194;SDS011;37259;49.972;19.850;2024-03-02T04:30:18;32.9;;;18.4;;
51194;SDS011;37259;49.972;19.850;2024-03-02T04:31:18;32.9;;;18.4;;
51194;SDS011;37259;49.972;19.850;2024-03-02T04:32:18;32.9;;;18.4;;
51194;SDS011;37259;49.972;19.850;2024-03-02T04:33:18;32.9;;;18.4;;
51194;SDS011;37259;49.972;19.850;2024-03-02T04:34:18;32.9;;;18.4;;
51194;SDS011;37259;49.972;19.850;2024-03-02T04:35:18;32.4;;;18.3;;
51194;SDS011;37259;49.972;19.850;2024-03-02T04:36:18;32.4;;;18.3;;
51194;SDS011;37259;49.972;19.850;2024-03-02T04:37:18;32.4;;;18.3;;
51194;SDS011;37259;49.972;19.850;2024-03-02T04:38:18;32.4;;;18.3;;
51194;SDS011;37259;49.972;19.850;2024-03-02T04:39:18;32.4;;;18.3;;
51194;SDS011;37259;49.972;19.850;2024-03-02T04:40:19;32.4;;;18.3;;
51194;SDS011;37259;49.972;19.850;2024-03-02T04:41:18;32.4;;;18.3;;
51194;SDS011;37259;49.972;19.850;2024-03-02T04:42:18;32.4;;;18.3;;
51194;SDS011;37259;49.972;19.850;2024-03-02T04:43:18;32.4;;;18.3;;
51194;SDS011;37259;49.972;19.850;2024-03-02T04:44:18;32.4;;;18.3;;
51194;SDS011;37259;49.972;19.850;2024-03-02T04:45:18;32.4;;;18.3;;
51194;SDS011;37259;49.972;19.850;2024-03-02T04:46:18;32.4;;;18.3;;
51194;SDS011;37259;49.972;19.850;2024-03-02T04:47:18;32.4;;;18.3;;
51194;SDS011;37259;49.972;19.850;2024-03-02T04:48:18;32.4;;;18.3;;
51194;SDS011;37259;49.972;19.850;2024-03-02T04:49:18;32.4;;;18.3;;
51194;SDS011;37259;49.972;19.850;2024-03-02T04:50:18;32.4;;;18.3;;
51194;SDS011;37259;49.972;19.850;2024-03-02T04:51:18;32.4;;;18.3;;
51194;SDS011;37259;49.972;19.850;2024-03-02T04:52:18;32.4;;;18.3;;
51194;SDS011;37259;49.972;19.850;2024-03-02T04:53:18;32.4;;;18.3;;
51194;SDS011;37259;49.972;19.850;2024-03-02T04:54:18;32.4;;;18.3;;
51194;SDS011;37259;49.972;19.850;2024-03-02T04:55:18;32.4;;;18.3;;
51194;SDS011;37259;49.972;19.850;2024-03-02T04:56:18;32.4;;;18.3;;
51194;SDS011;37259;49.972;19.850;2024-03-02T04:57:18;32.4;;;18.3;;
51194;SDS011;37259;49.972;19.850;2024-03-02T04:58:18;32.4;;;18.3;;
51194;SDS011;37259;49.972;19.850;2024-03-02T04:59:18;32.4;;;18.3;;
51194;SDS011;37259;49.972;19.850;2024-03-02T05:00:18;32.4;;;18.3;;
51194;SDS011;37259;49.972;19.850;2024-03-02T05:01:18;32.4;;;18.3;;
51194;SDS011;37259;49.972;19.850;2024-03-02T05:02:18;32.4;;;18.3;;
51194;SDS011;37259;49.972;19.850;2024-03-02T05:03:18;32.4;;;18.3;;
51194;SDS011;37259;49.972;19.850;2024-03-02T05:04:18;32.4;;;18.3;;
51194;SDS011;37259;49.972;19.850;2024-03-02T05:05:18;27.6;;;16;;
51194;SDS011;37259;49.972;19.850;2024-03-02T05:06:18;27.6;;;16;;
51194;SDS011;37259;49.972;19.850;2024-03-02T05:07:18;27.6;;;16;;
51194;SDS011;37259;49.972;19.850;2024-03-02T05:08:18;27.6;;;16;;
51194;SDS011;37259;49.972;19.850;2024-03-02T05:09:18;27.6;;;16;;
51194;SDS011;37259;49.972;19.850;2024-03-02T05:10:18;27.6;;;16;;
51194;SDS011;37259;49.972;19.850;2024-03-02T05:11:18;27.6;;;16;;
51194;SDS011;37259;49.972;19.850;2024-03-02T05:12:18;27.6;;;16;;
51194;SDS011;37259;49.972;19.850;2024-03-02T05:13:18;27.6;;;16;;
51194;SDS011;37259;49.972;19.850;2024-03-02T05:14:18;27.6;;;16;;
51194;SDS011;37259;49.972;19.850;2024-03-02T05:15:18;27.6;;;16;;
51194;SDS011;37259;49.972;19.850;2024-03-02T05:16:18;27.6;;;16;;
51194;SDS011;37259;49.972;19.850;2024-03-02T05:17:18;27.6;;;16;;
51194;SDS011;37259;49.972;19.850;2024-03-02T05:18:18;27.6;;;16;;
51194;SDS011;37259;49.972;19.850;2024-03-02T05:19:18;27.6;;;16;;
51194;SDS011;37259;49.972;19.850;2024-03-02T05:20:18;27.6;;;16;;
51194;SDS011;37259;49.972;19.850;2024-03-02T05:21:18;27.6;;;16;;
51194;SDS011;37259;49.972;19.850;2024-03-02T05:22:18;27.6;;;16;;
51194;SDS011;37259;49.972;19.850;2024-03-02T05:23:18;27.6;;;16;;
51194;SDS011;37259;49.972;19.850;2024-03-02T05:24:18;27.6;;;16;;
51194;SDS011;37259;49.972;19.850;2024-03-02T05:25:18;27.6;;;16;;
51194;SDS011;37259;49.972;19.850;2024-03-02T05:26:18;27.6;;;16;;
51194;SDS011;37259;49.972;19.850;2024-03-02T05:27:18;27.6;;;16;;
51194;SDS011;37259;49.972;19.850;2024-03-02T05:28:18;27.6;;;16;;
51194;SDS011;37259;49.972;19.850;2024-03-02T05:29:18;27.6;;;16;;
51194;SDS011;37259;49.972;19.850;2024-03-02T05:30:18;27.6;;;16;;
51194;SDS011;37259;49.972;19.850;2024-03-02T05:31:18;27.6;;;16;;
51194;SDS011;37259;49.972;19.850;2024-03-02T05:32:18;27.6;;;16;;
51194;SDS011;37259;49.972;19.850;2024-03-02T05:33:18;27.6;;;16;;
51194;SDS011;37259;49.972;19.850;2024-03-02T05:34:18;25.5;;;15.8;;
51194;SDS011;37259;49.972;19.850;2024-03-02T05:35:18;25.5;;;15.8;;
51194;SDS011;37259;49.972;19.850;2024-03-02T05:36:18;25.5;;;15.8;;
51194;SDS011;37259;49.972;19.850;2024-03-02T05:37:18;25.5;;;15.8;;
51194;SDS011;37259;49.972;19.850;2024-03-02T05:38:18;25.5;;;15.8;;
51194;SDS011;37259;49.972;19.850;2024-03-02T05:39:18;25.5;;;15.8;;
51194;SDS011;37259;49.972;19.850;2024-03-02T05:40:18;25.5;;;15.8;;
51194;SDS011;37259;49.972;19.850;2024-03-02T05:41:18;25.5;;;15.8;;
51194;SDS011;37259;49.972;19.850;2024-03-02T05:42:18;25.5;;;15.8;;
51194;SDS011;37259;49.972;19.850;2024-03-02T05:43:18;25.5;;;15.8;;
51194;SDS011;37259;49.972;19.850;2024-03-02T05:44:18;25.5;;;15.8;;
51194;SDS011;37259;49.972;19.850;2024-03-02T05:45:18;25.5;;;15.8;;
51194;SDS011;37259;49.972;19.850;2024-03-02T05:46:18;25.5;;;15.8;;
51194;SDS011;37259;49.972;19.850;2024-03-02T05:47:18;25.5;;;15.8;;
51194;SDS011;37259;49.972;19.850;2024-03-02T05:48:18;25.5;;;15.8;;
51194;SDS011;37259;49.972;19.850;2024-03-02T05:49:18;25.5;;;15.8;;
51194;SDS011;37259;49.972;19.850;2024-03-02T05:50:18;25.5;;;15.8;;
51194;SDS011;37259;49.972;19.850;2024-03-02T05:51:18;25.5;;;15.8;;
51194;SDS011;37259;49.972;19.850;2024-03-02T05:52:18;25.5;;;15.8;;
51194;SDS011;37259;49.972;19.850;2024-03-02T05:53:18;25.5;;;15.8;;
51194;SDS011;37259;49.972;19.850;2024-03-02T05:54:18;25.5;;;15.8;;
51194;SDS011;37259;49.972;19.850;2024-03-02T05:55:18;25.5;;;15.8;;
51194;SDS011;37259;49.972;19.850;2024-03-02T05:56:18;25.5;;;15.8;;
51194;SDS011;37259;49.972;19.850;2024-03-02T05:57:18;25.5;;;15.8;;
51194;SDS011;37259;49.972;19.850;2024-03-02T05:58:18;25.5;;;15.8;;
51194;SDS011;37259;49.972;19.850;2024-03-02T05:59:18;25.5;;;15.8;;
51194;SDS011;37259;49.972;19.850;2024-03-02T06:00:18;25.5;;;15.8;;